createdAt,value
2018-02-20T00:01:51.918Z,41.80
2018-02-20T00:04:17.973Z,43.40
2018-02-20T00:06:44.117Z,48.00
2018-02-20T00:09:10.119Z,39.73
2018-02-20T00:11:36.193Z,45.90
2018-02-20T00:14:02.213Z,47.33
2018-02-20T00:16:28.290Z,44.83
2018-02-20T00:18:54.338Z,43.50
2018-02-20T00:21:20.379Z,45.90
2018-02-20T00:23:46.499Z,43.27
2018-02-20T00:26:12.490Z,50.80
2018-02-20T00:28:39.067Z,42.70
2018-02-20T00:31:05.065Z,41.87
2018-02-20T00:33:31.118Z,52.97
2018-02-20T00:35:57.218Z,46.97
2018-02-20T00:38:23.223Z,45.20
2018-02-20T00:40:49.347Z,46.97
2018-02-20T00:43:15.396Z,42.80
2018-02-20T00:45:41.436Z,45.63
2018-02-20T00:48:07.513Z,46.47
2018-02-20T00:50:33.534Z,46.67
2018-02-20T00:52:59.664Z,43.57
2018-02-20T00:55:25.699Z,43.50
2018-02-20T00:57:51.806Z,40.07
2018-02-20T01:00:17.881Z,41.17
2018-02-20T01:02:43.963Z,49.00
2018-02-20T01:05:10.022Z,39.87
2018-02-20T01:07:36.096Z,46.00
2018-02-20T01:10:02.601Z,39.73
2018-02-20T01:12:28.691Z,42.97
2018-02-20T01:14:54.738Z,43.40
2018-02-20T01:17:20.941Z,50.97
2018-02-20T01:19:46.998Z,43.50
2018-02-20T01:22:13.104Z,47.37
2018-02-20T01:24:39.225Z,41.93
2018-02-20T01:27:05.254Z,43.43
2018-02-20T01:29:31.277Z,43.17
2018-02-20T01:31:57.406Z,45.43
2018-02-20T01:34:23.405Z,38.73
2018-02-20T01:36:49.429Z,47.03
2018-02-20T01:39:15.494Z,47.17
2018-02-20T01:41:41.512Z,48.17
2018-02-20T01:44:07.634Z,39.90
2018-02-20T01:46:33.681Z,45.27
2018-02-20T01:48:59.740Z,43.10
2018-02-20T01:51:25.757Z,44.60
2018-02-20T01:53:51.798Z,46.87
2018-02-20T01:56:17.800Z,41.17
2018-02-20T01:58:43.784Z,41.10
2018-02-20T02:01:09.840Z,42.33
2018-02-20T02:03:35.885Z,35.87
2018-02-20T02:06:01.926Z,41.97
2018-02-20T02:08:27.957Z,41.73
2018-02-20T02:10:53.981Z,38.40
2018-02-20T02:13:20.017Z,43.10
2018-02-20T02:15:46.057Z,45.30
2018-02-20T02:18:12.100Z,44.97
2018-02-20T02:20:38.110Z,52.77
2018-02-20T02:23:04.150Z,47.97
2018-02-20T02:25:30.190Z,42.63
2018-02-20T02:27:56.237Z,44.63
2018-02-20T02:30:22.279Z,41.57
2018-02-20T02:32:48.609Z,44.17
2018-02-20T02:35:14.582Z,44.77
2018-02-20T02:37:40.630Z,41.50
2018-02-20T02:40:06.670Z,42.07
2018-02-20T02:42:32.695Z,43.63
2018-02-20T02:44:58.761Z,41.47
2018-02-20T02:47:24.873Z,39.70
2018-02-20T02:49:50.956Z,42.43
2018-02-20T02:52:16.993Z,41.80
2018-02-20T02:54:43.035Z,44.47
2018-02-20T02:57:09.085Z,37.40
2018-02-20T02:59:35.150Z,48.13
2018-02-20T03:02:01.199Z,41.23
2018-02-20T03:04:27.183Z,39.07
2018-02-20T03:06:53.234Z,44.80
2018-02-20T03:09:19.270Z,37.50
2018-02-20T03:11:45.340Z,43.67
2018-02-20T03:14:11.419Z,46.07
2018-02-20T03:16:37.539Z,40.20
2018-02-20T03:19:03.637Z,36.73
2018-02-20T03:21:29.673Z,40.20
2018-02-20T03:23:55.691Z,35.10
2018-02-20T03:26:21.715Z,39.23
2018-02-20T03:28:47.774Z,40.57
2018-02-20T03:31:13.831Z,42.10
2018-02-20T03:33:39.946Z,40.53
2018-02-20T03:36:06.062Z,38.03
2018-02-20T03:38:32.354Z,42.63
2018-02-20T03:40:58.413Z,40.20
2018-02-20T03:43:24.474Z,40.53
2018-02-20T03:45:50.522Z,50.27
2018-02-20T03:48:16.629Z,47.43
2018-02-20T03:50:42.655Z,43.90
2018-02-20T03:53:08.736Z,41.33
2018-02-20T03:55:34.802Z,44.93
2018-02-20T03:58:00.844Z,40.27
2018-02-20T04:00:26.918Z,40.90
2018-02-20T04:02:53.044Z,43.23
2018-02-20T04:05:19.101Z,42.67
2018-02-20T04:07:45.105Z,46.53
2018-02-20T04:10:11.185Z,42.60
2018-02-20T04:12:37.195Z,44.97
2018-02-20T04:15:03.412Z,39.00
2018-02-20T04:17:29.444Z,43.30
2018-02-20T04:19:55.530Z,42.40
2018-02-20T04:22:21.617Z,39.60
2018-02-20T04:24:47.678Z,36.30
2018-02-20T04:27:13.727Z,36.37
2018-02-20T04:29:39.766Z,41.03
2018-02-20T04:32:13.173Z,41.50
2018-02-20T04:34:39.256Z,43.10
2018-02-20T04:37:05.292Z,40.10
2018-02-20T04:39:31.346Z,44.00
2018-02-20T04:41:57.343Z,32.30
2018-02-20T04:44:23.370Z,35.50
2018-02-20T04:46:49.401Z,33.77
2018-02-20T04:49:15.418Z,34.43
2018-02-20T04:51:41.462Z,39.07
2018-02-20T04:54:07.494Z,40.50
2018-02-20T04:56:33.586Z,39.23
2018-02-20T04:58:59.653Z,37.90
2018-02-20T05:01:25.793Z,41.07
2018-02-20T05:03:51.781Z,34.80
2018-02-20T05:06:17.849Z,35.30
2018-02-20T05:08:43.905Z,36.73
2018-02-20T05:11:09.930Z,40.47
2018-02-20T05:13:35.989Z,32.27
2018-02-20T05:16:02.057Z,39.13
2018-02-20T05:18:28.152Z,43.70
2018-02-20T05:20:54.167Z,37.17
2018-02-20T05:23:20.213Z,41.87
2018-02-20T05:25:46.259Z,35.10
2018-02-20T05:28:12.282Z,38.60
2018-02-20T05:30:38.361Z,39.53
2018-02-20T05:33:04.486Z,37.00
2018-02-20T05:35:30.525Z,32.33
2018-02-20T05:37:56.641Z,37.30
2018-02-20T05:40:22.707Z,39.73
2018-02-20T05:42:48.766Z,40.27
2018-02-20T05:45:14.798Z,36.97
2018-02-20T05:47:40.862Z,33.73
2018-02-20T05:50:06.922Z,36.00
2018-02-20T05:52:32.965Z,33.13
2018-02-20T05:54:59.013Z,39.70
2018-02-20T05:57:25.101Z,37.17
2018-02-20T05:59:51.156Z,40.53
2018-02-20T06:02:17.226Z,38.57
2018-02-20T06:04:43.288Z,41.33
2018-02-20T06:07:09.350Z,38.53
2018-02-20T06:09:35.450Z,33.60
2018-02-20T06:12:01.490Z,36.80
2018-02-20T06:14:27.477Z,38.40
2018-02-20T06:16:53.554Z,42.13
2018-02-20T06:19:19.525Z,42.20
2018-02-20T06:21:45.529Z,37.67
2018-02-20T06:24:11.600Z,55.13
2018-02-20T06:26:37.634Z,53.57
2018-02-20T06:29:03.682Z,46.40
2018-02-20T06:31:29.738Z,47.07
2018-02-20T06:33:55.773Z,49.33
2018-02-20T06:36:21.811Z,44.13
2018-02-20T06:38:47.902Z,46.20
2018-02-20T06:41:13.917Z,46.47
2018-02-20T06:43:39.965Z,47.97
2018-02-20T06:46:06.009Z,41.97
2018-02-20T06:48:32.082Z,44.30
2018-02-20T06:50:58.105Z,50.37
2018-02-20T06:53:24.130Z,43.53
2018-02-20T06:55:50.160Z,34.63
2018-02-20T06:58:16.183Z,40.10
2018-02-20T07:00:42.270Z,43.07
2018-02-20T07:03:08.293Z,38.63
2018-02-20T07:05:34.301Z,46.20
2018-02-20T07:08:00.336Z,38.33
2018-02-20T07:10:26.364Z,41.63
2018-02-20T07:12:52.469Z,40.20
2018-02-20T07:15:18.481Z,34.77
2018-02-20T07:17:44.581Z,32.07
2018-02-20T07:20:10.630Z,36.13
2018-02-20T07:22:36.698Z,30.03
2018-02-20T07:25:02.981Z,30.53
2018-02-20T07:27:29.097Z,31.33
2018-02-20T07:29:55.123Z,39.57
2018-02-20T07:32:21.174Z,34.80
2018-02-20T07:34:47.186Z,33.10
2018-02-20T07:37:13.197Z,31.50
2018-02-20T07:39:39.235Z,37.70
2018-02-20T07:42:05.207Z,40.00
2018-02-20T07:44:31.277Z,38.10
2018-02-20T07:46:57.570Z,42.20
2018-02-20T07:49:23.603Z,38.63
2018-02-20T07:51:49.683Z,37.67
2018-02-20T07:54:15.670Z,36.83
2018-02-20T07:56:41.654Z,41.53
2018-02-20T07:59:07.733Z,40.53
2018-02-20T08:01:33.759Z,39.30
2018-02-20T08:03:59.806Z,37.80
2018-02-20T08:06:25.798Z,38.27
2018-02-20T08:08:51.889Z,35.97
2018-02-20T08:11:17.949Z,37.77
2018-02-20T08:13:44.040Z,40.40
2018-02-20T08:16:10.073Z,31.93
2018-02-20T08:18:36.038Z,40.30
2018-02-20T08:21:02.067Z,36.57
2018-02-20T08:23:28.068Z,29.93
2018-02-20T08:25:54.082Z,38.37
2018-02-20T08:28:20.129Z,38.53
2018-02-20T08:30:46.125Z,40.73
2018-02-20T08:33:12.150Z,40.33
2018-02-20T08:35:38.211Z,38.30
2018-02-20T08:38:04.606Z,40.10
2018-02-20T08:40:30.676Z,40.60
2018-02-20T08:42:56.701Z,30.20
2018-02-20T08:45:22.729Z,42.00
2018-02-20T08:47:48.786Z,39.83
2018-02-20T08:50:14.810Z,28.90
2018-02-20T08:52:40.844Z,36.03
2018-02-20T08:55:13.886Z,31.97
2018-02-20T08:57:39.925Z,44.03
2018-02-20T09:00:06.024Z,39.80
2018-02-20T09:02:32.012Z,40.50
2018-02-20T09:04:58.017Z,34.37
2018-02-20T09:07:24.044Z,32.60
2018-02-20T09:09:50.085Z,36.10
2018-02-20T09:12:16.054Z,29.50
2018-02-20T09:14:42.151Z,26.60
2018-02-20T09:17:08.174Z,30.03
2018-02-20T09:19:34.253Z,32.23
2018-02-20T09:22:00.304Z,36.73
2018-02-20T09:24:26.262Z,28.70
2018-02-20T09:26:52.325Z,27.30
2018-02-20T09:29:18.351Z,32.50
2018-02-20T09:31:44.422Z,31.43
2018-02-20T09:34:10.475Z,33.03
2018-02-20T09:36:36.498Z,28.73
2018-02-20T09:39:02.484Z,32.20
2018-02-20T09:41:28.525Z,26.60
2018-02-20T09:43:54.571Z,27.30
2018-02-20T09:46:20.548Z,31.10
2018-02-20T09:48:46.593Z,29.80
2018-02-20T09:51:13.144Z,26.10
2018-02-20T09:53:39.170Z,25.97
2018-02-20T09:56:05.270Z,32.77
2018-02-20T09:58:31.229Z,29.03
2018-02-20T10:00:57.270Z,33.40
2018-02-20T10:03:23.343Z,30.13
2018-02-20T10:05:49.379Z,27.07
2018-02-20T10:08:15.509Z,29.77
2018-02-20T10:10:41.589Z,27.53
2018-02-20T10:13:07.626Z,32.60
2018-02-20T10:15:33.654Z,26.60
2018-02-20T10:17:59.729Z,30.83
2018-02-20T10:20:25.727Z,25.40
2018-02-20T10:22:51.770Z,28.47
2018-02-20T10:25:17.815Z,32.17
2018-02-20T10:27:43.839Z,30.37
2018-02-20T10:30:09.925Z,32.60
2018-02-20T10:32:35.976Z,35.90
2018-02-20T10:35:02.062Z,30.70
2018-02-20T10:37:28.493Z,36.50
2018-02-20T10:39:54.533Z,31.47
2018-02-20T10:42:20.533Z,40.27
2018-02-20T10:44:46.486Z,40.33
2018-02-20T10:47:12.554Z,40.43
2018-02-20T10:49:38.594Z,42.23
2018-02-20T10:52:04.814Z,34.13
2018-02-20T10:54:30.885Z,33.60
2018-02-20T10:56:57.013Z,35.93
2018-02-20T10:59:23.054Z,34.87
2018-02-20T11:01:49.073Z,34.50
2018-02-20T11:04:15.122Z,34.43
2018-02-20T11:06:41.200Z,28.17
2018-02-20T11:09:07.260Z,30.70
2018-02-20T11:11:33.281Z,29.80
2018-02-20T11:13:59.330Z,31.03
2018-02-20T11:16:25.353Z,29.50
2018-02-20T11:18:51.411Z,36.57
2018-02-20T11:21:17.493Z,36.30
2018-02-20T11:23:43.495Z,36.00
2018-02-20T11:26:09.558Z,31.67
2018-02-20T11:28:35.653Z,32.67
2018-02-20T11:31:01.666Z,27.23
2018-02-20T11:33:27.734Z,38.53
2018-02-20T11:35:53.782Z,32.53
2018-02-20T11:38:19.832Z,33.73
2018-02-20T11:40:45.774Z,36.27
2018-02-20T11:43:11.890Z,30.93
2018-02-20T11:45:37.939Z,29.87
2018-02-20T11:48:03.963Z,32.13
2018-02-20T11:50:30.022Z,29.27
2018-02-20T11:52:56.031Z,26.80
2018-02-20T11:55:22.094Z,28.97
2018-02-20T11:57:48.098Z,30.67
2018-02-20T12:00:14.210Z,33.00
2018-02-20T12:02:40.221Z,35.17
2018-02-20T12:05:06.562Z,32.87
2018-02-20T12:07:32.538Z,32.70
2018-02-20T12:09:58.550Z,34.20
2018-02-20T12:12:24.533Z,34.63
2018-02-20T12:14:50.545Z,34.17
2018-02-20T12:17:16.607Z,38.40
2018-02-20T12:19:42.658Z,36.60
2018-02-20T12:22:08.677Z,34.87
2018-02-20T12:24:34.747Z,27.53
2018-02-20T12:27:00.790Z,41.10
2018-02-20T12:29:27.098Z,38.50
2018-02-20T12:31:53.057Z,37.30
2018-02-20T12:34:19.086Z,41.70
2018-02-20T12:36:45.117Z,31.03
2018-02-20T12:39:11.140Z,38.83
2018-02-20T12:41:37.182Z,36.50
2018-02-20T12:44:03.210Z,37.53
2018-02-20T12:46:29.242Z,31.60
2018-02-20T12:48:55.289Z,38.23
2018-02-20T12:51:21.326Z,36.53
2018-02-20T12:53:47.400Z,32.07
2018-02-20T12:56:13.434Z,35.57
2018-02-20T12:58:39.533Z,37.00
2018-02-20T13:01:05.550Z,47.47
2018-02-20T13:03:31.609Z,29.60
2018-02-20T13:05:57.671Z,31.50
2018-02-20T13:08:23.686Z,34.20
2018-02-20T13:10:49.812Z,35.53
2018-02-20T13:13:15.843Z,37.70
2018-02-20T13:15:41.871Z,30.83
2018-02-20T13:18:07.897Z,35.87
2018-02-20T13:20:34.053Z,37.37
2018-02-20T13:23:00.087Z,37.83
2018-02-20T13:25:26.109Z,43.60
2018-02-20T13:27:52.152Z,37.13
2018-02-20T13:30:18.174Z,33.50
2018-02-20T13:32:44.634Z,39.23
2018-02-20T13:35:10.808Z,32.40
2018-02-20T13:37:36.787Z,38.23
2018-02-20T13:40:03.371Z,36.90
2018-02-20T13:42:29.402Z,37.87
2018-02-20T13:44:55.577Z,37.47
2018-02-20T13:47:21.569Z,43.83
2018-02-20T13:49:47.786Z,39.83
2018-02-20T13:52:13.843Z,48.73
2018-02-20T13:54:39.888Z,47.83
2018-02-20T13:57:05.960Z,47.20
2018-02-20T13:59:32.178Z,41.73
2018-02-20T14:01:58.277Z,48.17
2018-02-20T14:04:24.337Z,42.70
2018-02-20T14:06:50.367Z,46.40
2018-02-20T14:09:16.390Z,46.27
2018-02-20T14:11:42.534Z,48.83
2018-02-20T14:14:09.398Z,43.37
2018-02-20T14:16:35.401Z,42.57
2018-02-20T14:19:01.406Z,46.07
2018-02-20T14:21:27.477Z,52.10
2018-02-20T14:23:53.543Z,42.77
2018-02-20T14:26:19.598Z,42.40
2018-02-20T14:28:45.702Z,39.40
2018-02-20T14:31:11.769Z,41.43
2018-02-20T14:33:37.800Z,44.27
2018-02-20T14:36:03.890Z,39.90
2018-02-20T14:38:29.905Z,40.47
2018-02-20T14:40:55.964Z,37.53
2018-02-20T14:43:22.034Z,37.03
2018-02-20T14:45:48.063Z,35.10
2018-02-20T14:48:14.096Z,42.90
2018-02-20T14:50:40.131Z,41.50
2018-02-20T14:53:06.514Z,34.97
2018-02-20T14:55:32.614Z,38.17
2018-02-20T14:57:58.675Z,33.73
2018-02-20T15:00:24.732Z,37.07
2018-02-20T15:02:50.755Z,37.23
2018-02-20T15:05:16.809Z,36.63
2018-02-20T15:07:42.825Z,40.70
2018-02-20T15:10:08.874Z,34.80
2018-02-20T15:12:34.938Z,36.60
2018-02-20T15:15:00.960Z,37.93
2018-02-20T15:17:27.002Z,34.33
2018-02-20T15:19:53.024Z,36.43
2018-02-20T15:22:19.181Z,36.27
2018-02-20T15:24:45.789Z,37.10
2018-02-20T15:27:12.072Z,36.47
2018-02-20T15:29:38.147Z,32.93
2018-02-20T15:32:05.724Z,32.70
2018-02-20T15:34:31.781Z,32.57
2018-02-20T15:37:01.385Z,35.37
2018-02-20T15:39:27.607Z,32.60
2018-02-20T15:41:53.621Z,31.57
2018-02-20T15:44:19.685Z,34.80
2018-02-20T15:46:45.751Z,34.60
2018-02-20T15:49:11.758Z,29.67
2018-02-20T15:51:37.808Z,34.73
2018-02-20T15:54:03.825Z,36.23
2018-02-20T15:56:29.672Z,43.00
2018-02-20T15:58:55.719Z,43.30
2018-02-20T16:01:21.614Z,33.20
2018-02-20T16:03:47.646Z,39.80
2018-02-20T16:06:13.967Z,35.47
2018-02-20T16:08:40.100Z,44.47
2018-02-20T16:11:06.201Z,40.60
2018-02-20T16:13:32.317Z,37.57
2018-02-20T16:15:59.266Z,38.37
2018-02-20T16:18:25.354Z,42.07
2018-02-20T16:20:51.463Z,42.23
2018-02-20T16:23:17.554Z,35.07
2018-02-20T16:25:43.615Z,39.87
2018-02-20T16:28:09.656Z,38.87
2018-02-20T16:30:35.706Z,39.33
2018-02-20T16:33:01.782Z,40.30
2018-02-20T16:35:27.821Z,41.07
2018-02-20T16:37:54.182Z,39.30
2018-02-20T16:40:20.198Z,40.43
2018-02-20T16:42:46.205Z,38.67
2018-02-20T16:45:12.264Z,41.20
2018-02-20T16:47:38.284Z,38.13
2018-02-20T16:50:04.309Z,36.07
2018-02-20T16:52:30.338Z,44.77
2018-02-20T16:54:56.378Z,45.70
2018-02-20T16:57:22.442Z,50.33
2018-02-20T16:59:49.182Z,39.57
2018-02-20T17:02:15.513Z,53.37
2018-02-20T17:04:41.647Z,40.93
2018-02-20T17:07:07.688Z,40.47
2018-02-20T17:09:33.758Z,37.77
2018-02-20T17:11:59.777Z,43.73
2018-02-20T17:14:25.808Z,39.63
2018-02-20T17:16:51.906Z,42.00
2018-02-20T17:19:17.931Z,39.27
2018-02-20T17:21:44.057Z,47.90
2018-02-20T17:24:10.054Z,46.23
2018-02-20T17:26:36.238Z,45.03
2018-02-20T17:29:02.309Z,43.70
2018-02-20T17:31:28.389Z,51.33
2018-02-20T17:33:54.563Z,46.77
2018-02-20T17:36:20.629Z,50.10
2018-02-20T17:38:46.719Z,44.13
2018-02-20T17:41:25.820Z,46.80
2018-02-20T17:43:51.886Z,58.33
2018-02-20T17:46:18.001Z,51.37
2018-02-20T17:48:44.052Z,57.77
2018-02-20T17:51:10.107Z,49.60
2018-02-20T17:53:36.151Z,63.40
2018-02-20T17:56:02.304Z,51.63
2018-02-20T17:58:29.200Z,51.23
2018-02-20T18:00:55.427Z,61.20
2018-02-20T18:03:21.454Z,60.87
2018-02-20T18:05:47.509Z,50.43
2018-02-20T18:08:13.592Z,50.67
2018-02-20T18:10:39.662Z,50.30
2018-02-20T18:13:05.690Z,56.50
2018-02-20T18:15:31.826Z,57.63
2018-02-20T18:17:57.888Z,64.30
2018-02-20T18:20:24.056Z,57.17
2018-02-20T18:22:50.078Z,57.03
2018-02-20T18:25:16.179Z,52.80
2018-02-20T18:27:42.374Z,44.80
2018-02-20T18:30:08.518Z,54.20
2018-02-20T18:32:34.554Z,52.80
2018-02-20T18:35:00.595Z,51.90
2018-02-20T18:37:26.640Z,53.27
2018-02-20T18:39:59.668Z,54.37
2018-02-20T18:42:25.738Z,55.60
2018-02-20T18:44:51.777Z,59.37
2018-02-20T18:47:17.942Z,55.60
2018-02-20T18:49:44.014Z,53.53
2018-02-20T18:52:10.019Z,52.17
2018-02-20T18:54:36.138Z,61.17
2018-02-20T18:57:02.167Z,56.03
2018-02-20T18:59:28.250Z,58.10
2018-02-20T19:01:54.303Z,63.33
2018-02-20T19:04:20.394Z,77.73
2018-02-20T19:06:46.454Z,57.70
2018-02-20T19:09:12.555Z,61.90
2018-02-20T19:11:38.631Z,64.53
2018-02-20T19:14:04.808Z,62.10
2018-02-20T19:16:30.926Z,57.73
2018-02-20T19:24:23.629Z,62.77
2018-02-20T19:26:50.983Z,58.13
2018-02-20T19:29:17.114Z,65.90
2018-02-20T19:31:43.299Z,58.47
2018-02-20T19:34:09.507Z,60.13
2018-02-20T19:36:35.678Z,58.23
2018-02-20T19:39:01.881Z,65.00
2018-02-20T19:41:28.067Z,68.97
2018-02-20T19:43:55.182Z,62.20
2018-02-20T19:46:21.365Z,57.37
2018-02-20T19:48:47.450Z,57.33
2018-02-20T19:51:13.550Z,60.63
2018-02-20T19:53:39.557Z,64.67
2018-02-20T19:56:05.638Z,65.33
2018-02-20T19:58:31.664Z,61.67
2018-02-20T20:00:57.825Z,66.03
2018-02-20T20:03:23.936Z,59.50
2018-02-20T20:05:49.931Z,69.90
2018-02-20T20:08:15.984Z,62.47
2018-02-20T20:10:42.010Z,62.20
2018-02-20T20:13:08.022Z,60.03
2018-02-20T20:15:34.063Z,66.10
2018-02-20T20:18:00.505Z,65.17
2018-02-20T20:20:36.904Z,68.73
2018-02-20T20:22:52.566Z,64.53
2018-02-20T20:25:18.611Z,51.97
2018-02-20T20:27:44.668Z,83.90
2018-02-20T20:30:10.935Z,64.77
2018-02-20T20:32:36.953Z,64.90
2018-02-20T20:35:03.713Z,60.17
2018-02-20T20:37:29.779Z,66.20
2018-02-20T20:39:55.816Z,61.40
2018-02-20T20:42:22.739Z,73.33
2018-02-20T20:44:48.733Z,84.57
2018-02-20T20:47:15.825Z,69.47
2018-02-20T20:49:42.157Z,72.73
2018-02-20T20:52:08.106Z,69.03
2018-02-20T20:54:34.244Z,75.03
2018-02-20T20:57:01.892Z,67.23
2018-02-20T20:59:27.974Z,69.40
2018-02-20T21:01:54.057Z,81.13
2018-02-20T21:04:20.052Z,67.97
2018-02-20T21:06:46.322Z,62.40
2018-02-20T21:09:12.324Z,68.43
2018-02-20T21:11:38.387Z,77.43
2018-02-20T21:14:04.410Z,69.63
2018-02-20T21:16:30.473Z,71.77
2018-02-20T21:18:56.582Z,70.00
2018-02-20T21:21:22.704Z,75.07
2018-02-20T21:23:48.715Z,72.83
2018-02-20T21:26:14.836Z,74.87
2018-02-20T21:28:40.923Z,72.53
2018-02-20T21:31:06.926Z,83.70
2018-02-20T21:33:33.048Z,78.27
2018-02-20T21:35:59.146Z,87.37
2018-02-20T21:38:25.182Z,79.67
2018-02-20T21:40:51.207Z,87.43
2018-02-20T21:43:17.227Z,88.17
2018-02-20T21:45:43.257Z,107.53
2018-02-20T21:48:09.285Z,92.87
2018-02-20T21:50:35.352Z,100.37
2018-02-20T21:53:01.439Z,90.47
2018-02-20T21:55:27.541Z,92.23
2018-02-20T21:57:53.773Z,83.53
2018-02-20T22:00:19.943Z,80.80
2018-02-20T22:02:45.995Z,83.70
2018-02-20T22:05:12.022Z,91.90
2018-02-20T22:07:38.088Z,84.47
2018-02-20T22:10:04.250Z,76.30
2018-02-20T22:12:30.234Z,81.13
2018-02-20T22:14:56.274Z,80.30
2018-02-20T22:17:22.282Z,80.77
2018-02-20T22:19:48.350Z,86.13
2018-02-20T22:22:14.362Z,77.83
2018-02-20T22:24:40.370Z,77.10
2018-02-20T22:27:06.410Z,88.13
2018-02-20T22:29:32.794Z,88.80
2018-02-20T22:31:58.844Z,93.17
2018-02-20T22:34:24.858Z,73.77
2018-02-20T22:36:50.907Z,68.33
2018-02-20T22:39:16.929Z,74.40
2018-02-20T22:41:42.986Z,78.67
2018-02-20T22:44:09.006Z,78.60
2018-02-20T22:46:35.053Z,81.20
2018-02-20T22:49:01.154Z,81.10
2018-02-20T22:51:27.186Z,82.53
2018-02-20T22:53:53.214Z,82.63
2018-02-20T22:56:19.302Z,84.47
2018-02-20T22:58:45.340Z,91.40
2018-02-20T23:01:11.374Z,75.77
2018-02-20T23:03:37.413Z,73.43
2018-02-20T23:06:03.522Z,77.27
2018-02-20T23:08:29.555Z,83.67
2018-02-20T23:10:55.690Z,84.27
2018-02-20T23:13:21.716Z,93.33
2018-02-20T23:15:47.785Z,74.80
2018-02-20T23:18:13.850Z,75.43
2018-02-20T23:20:40.146Z,87.57
2018-02-20T23:23:06.190Z,83.50
2018-02-20T23:25:32.206Z,78.50
2018-02-20T23:27:58.174Z,80.40
2018-02-20T23:30:24.273Z,78.70
2018-02-20T23:32:50.335Z,82.27
2018-02-20T23:35:16.460Z,94.90
2018-02-20T23:37:42.426Z,94.20
2018-02-20T23:40:08.487Z,78.40
2018-02-20T23:42:34.539Z,80.13
2018-02-20T23:45:00.574Z,84.50
2018-02-20T23:47:26.641Z,83.23
2018-02-20T23:49:52.731Z,77.43
2018-02-20T23:52:18.777Z,84.43
2018-02-20T23:54:44.740Z,99.83
2018-02-20T23:57:10.802Z,82.07
2018-02-20T23:59:36.809Z,76.97
